sensor_id;sensor_type;location;lat;lon;timestamp;temperature;humidity
2889;DHT22;1453;42.708;23.282;2024-03-25T00:01:35;3.60;99.90
2889;DHT22;1453;42.708;23.282;2024-03-25T00:04:01;3.50;99.90
2889;DHT22;1453;42.708;23.282;2024-03-25T00:06:26;3.60;99.90
2889;DHT22;1453;42.708;23.282;2024-03-25T00:08:52;3.40;99.90
2889;DHT22;1453;42.708;23.282;2024-03-25T00:11:18;3.10;99.90
2889;DHT22;1453;42.708;23.282;2024-03-25T00:13:44;3.20;99.90
2889;DHT22;1453;42.708;23.282;2024-03-25T00:16:10;3.20;99.90
2889;DHT22;1453;42.708;23.282;2024-03-25T00:18:36;3.00;99.90
2889;DHT22;1453;42.708;23.282;2024-03-25T00:21:02;3.30;99.90
2889;DHT22;1453;42.708;23.282;2024-03-25T00:23:28;3.30;99.90
2889;DHT22;1453;42.708;23.282;2024-03-25T00:25:53;3.40;99.90
2889;DHT22;1453;42.708;23.282;2024-03-25T00:28:19;3.20;99.90
2889;DHT22;1453;42.708;23.282;2024-03-25T00:30:45;3.20;99.90
2889;DHT22;1453;42.708;23.282;2024-03-25T00:33:11;3.40;99.90
2889;DHT22;1453;42.708;23.282;2024-03-25T00:35:38;3.20;99.90
2889;DHT22;1453;42.708;23.282;2024-03-25T00:38:04;3.10;99.90
2889;DHT22;1453;42.708;23.282;2024-03-25T00:40:30;3.00;99.90
2889;DHT22;1453;42.708;23.282;2024-03-25T00:42:56;3.00;99.90
2889;DHT22;1453;42.708;23.282;2024-03-25T00:45:22;3.00;99.90
2889;DHT22;1453;42.708;23.282;2024-03-25T00:47:50;3.00;99.90
2889;DHT22;1453;42.708;23.282;2024-03-25T00:50:16;3.00;99.90
2889;DHT22;1453;42.708;23.282;2024-03-25T00:52:42;3.00;99.90
2889;DHT22;1453;42.708;23.282;2024-03-25T00:55:08;3.20;99.90
2889;DHT22;1453;42.708;23.282;2024-03-25T00:57:34;3.30;99.90
2889;DHT22;1453;42.708;23.282;2024-03-25T01:00:00;3.20;99.90
2889;DHT22;1453;42.708;23.282;2024-03-25T01:02:26;3.30;99.90
2889;DHT22;1453;42.708;23.282;2024-03-25T01:04:53;3.40;99.90
2889;DHT22;1453;42.708;23.282;2024-03-25T01:07:20;3.30;99.90
2889;DHT22;1453;42.708;23.282;2024-03-25T01:09:46;3.40;99.90
2889;DHT22;1453;42.708;23.282;2024-03-25T01:12:12;3.40;99.90
2889;DHT22;1453;42.708;23.282;2024-03-25T01:14:37;3.60;99.90
2889;DHT22;1453;42.708;23.282;2024-03-25T01:17:04;3.60;99.90
2889;DHT22;1453;42.708;23.282;2024-03-25T01:19:30;3.70;99.90
2889;DHT22;1453;42.708;23.282;2024-03-25T01:21:56;4.00;99.90
2889;DHT22;1453;42.708;23.282;2024-03-25T01:24:21;4.20;99.90
2889;DHT22;1453;42.708;23.282;2024-03-25T01:26:48;4.20;99.90
2889;DHT22;1453;42.708;23.282;2024-03-25T01:29:14;4.20;99.90
2889;DHT22;1453;42.708;23.282;2024-03-25T01:31:39;4.00;99.90
2889;DHT22;1453;42.708;23.282;2024-03-25T01:34:05;4.20;99.90
2889;DHT22;1453;42.708;23.282;2024-03-25T01:36:31;4.20;99.90
2889;DHT22;1453;42.708;23.282;2024-03-25T01:38:57;4.40;99.90
2889;DHT22;1453;42.708;23.282;2024-03-25T01:41:23;4.40;99.90
2889;DHT22;1453;42.708;23.282;2024-03-25T01:43:49;4.40;99.90
2889;DHT22;1453;42.708;23.282;2024-03-25T01:46:17;4.70;99.90
2889;DHT22;1453;42.708;23.282;2024-03-25T01:48:44;4.80;99.90
2889;DHT22;1453;42.708;23.282;2024-03-25T01:51:12;4.80;99.90
2889;DHT22;1453;42.708;23.282;2024-03-25T01:53:39;4.80;99.90
2889;DHT22;1453;42.708;23.282;2024-03-25T01:56:05;4.50;99.90
2889;DHT22;1453;42.708;23.282;2024-03-25T01:58:31;4.40;99.90
2889;DHT22;1453;42.708;23.282;2024-03-25T02:00:58;4.10;99.90
2889;DHT22;1453;42.708;23.282;2024-03-25T02:03:27;4.10;99.90
2889;DHT22;1453;42.708;23.282;2024-03-25T02:06:00;3.60;99.90
2889;DHT22;1453;42.708;23.282;2024-03-25T02:08:29;3.50;99.90
2889;DHT22;1453;42.708;23.282;2024-03-25T02:10:57;3.50;99.90
2889;DHT22;1453;42.708;23.282;2024-03-25T02:13:24;3.40;99.90
2889;DHT22;1453;42.708;23.282;2024-03-25T02:15:50;3.30;99.90
2889;DHT22;1453;42.708;23.282;2024-03-25T02:18:35;3.10;99.90
2889;DHT22;1453;42.708;23.282;2024-03-25T02:21:01;3.20;99.90
2889;DHT22;1453;42.708;23.282;2024-03-25T02:23:27;3.10;99.90
2889;DHT22;1453;42.708;23.282;2024-03-25T02:25:53;3.10;99.90
2889;DHT22;1453;42.708;23.282;2024-03-25T02:28:20;3.00;99.90
2889;DHT22;1453;42.708;23.282;2024-03-25T02:30:46;3.10;99.90
2889;DHT22;1453;42.708;23.282;2024-03-25T02:33:13;3.30;99.90
2889;DHT22;1453;42.708;23.282;2024-03-25T02:35:40;3.30;99.90
2889;DHT22;1453;42.708;23.282;2024-03-25T02:38:08;3.40;99.90
2889;DHT22;1453;42.708;23.282;2024-03-25T02:40:35;3.50;99.90
2889;DHT22;1453;42.708;23.282;2024-03-25T02:43:01;3.60;99.90
2889;DHT22;1453;42.708;23.282;2024-03-25T02:45:27;3.50;99.90
2889;DHT22;1453;42.708;23.282;2024-03-25T02:47:54;3.50;99.90
2889;DHT22;1453;42.708;23.282;2024-03-25T02:50:20;3.50;99.90
2889;DHT22;1453;42.708;23.282;2024-03-25T02:52:46;3.40;99.90
2889;DHT22;1453;42.708;23.282;2024-03-25T02:55:12;3.60;99.90
2889;DHT22;1453;42.708;23.282;2024-03-25T02:57:38;3.70;99.90
2889;DHT22;1453;42.708;23.282;2024-03-25T03:00:04;3.70;99.90
2889;DHT22;1453;42.708;23.282;2024-03-25T03:02:31;3.60;99.90
2889;DHT22;1453;42.708;23.282;2024-03-25T03:04:57;3.50;99.90
2889;DHT22;1453;42.708;23.282;2024-03-25T03:07:23;3.40;99.90
2889;DHT22;1453;42.708;23.282;2024-03-25T03:09:48;3.60;99.90
2889;DHT22;1453;42.708;23.282;2024-03-25T03:12:14;3.50;99.90
2889;DHT22;1453;42.708;23.282;2024-03-25T03:14:40;3.50;99.90
2889;DHT22;1453;42.708;23.282;2024-03-25T03:17:06;3.60;99.90
2889;DHT22;1453;42.708;23.282;2024-03-25T03:19:32;3.80;99.90
2889;DHT22;1453;42.708;23.282;2024-03-25T03:21:58;3.60;99.90
2889;DHT22;1453;42.708;23.282;2024-03-25T03:24:24;3.50;99.90
2889;DHT22;1453;42.708;23.282;2024-03-25T03:26:50;3.60;99.90
2889;DHT22;1453;42.708;23.282;2024-03-25T03:29:16;3.50;99.90
2889;DHT22;1453;42.708;23.282;2024-03-25T03:31:42;3.60;99.90
2889;DHT22;1453;42.708;23.282;2024-03-25T03:34:08;3.70;99.90
2889;DHT22;1453;42.708;23.282;2024-03-25T03:36:34;3.80;99.90
2889;DHT22;1453;42.708;23.282;2024-03-25T03:39:00;3.80;99.90
2889;DHT22;1453;42.708;23.282;2024-03-25T03:41:26;3.80;99.90
2889;DHT22;1453;42.708;23.282;2024-03-25T03:43:51;4.00;99.90
2889;DHT22;1453;42.708;23.282;2024-03-25T03:46:17;3.90;99.90
2889;DHT22;1453;42.708;23.282;2024-03-25T03:48:43;3.80;99.90
2889;DHT22;1453;42.708;23.282;2024-03-25T03:51:09;3.80;99.90
2889;DHT22;1453;42.708;23.282;2024-03-25T03:53:35;3.90;99.90
2889;DHT22;1453;42.708;23.282;2024-03-25T03:56:03;3.80;99.90
2889;DHT22;1453;42.708;23.282;2024-03-25T03:58:33;3.70;99.90
2889;DHT22;1453;42.708;23.282;2024-03-25T04:01:00;3.60;99.90
2889;DHT22;1453;42.708;23.282;2024-03-25T04:03:26;3.60;99.90
2889;DHT22;1453;42.708;23.282;2024-03-25T04:05:52;3.70;99.90
2889;DHT22;1453;42.708;23.282;2024-03-25T04:08:18;3.70;99.90
2889;DHT22;1453;42.708;23.282;2024-03-25T04:10:44;3.80;99.90
2889;DHT22;1453;42.708;23.282;2024-03-25T04:13:11;3.70;99.90
2889;DHT22;1453;42.708;23.282;2024-03-25T04:15:39;3.80;99.90
2889;DHT22;1453;42.708;23.282;2024-03-25T04:18:06;3.80;99.90
2889;DHT22;1453;42.708;23.282;2024-03-25T04:20:39;3.70;99.90
2889;DHT22;1453;42.708;23.282;2024-03-25T04:23:06;3.70;99.90
2889;DHT22;1453;42.708;23.282;2024-03-25T04:25:35;3.60;99.90
2889;DHT22;1453;42.708;23.282;2024-03-25T04:28:03;3.70;99.90
2889;DHT22;1453;42.708;23.282;2024-03-25T04:30:31;3.70;99.90
2889;DHT22;1453;42.708;23.282;2024-03-25T04:32:58;3.70;99.90
2889;DHT22;1453;42.708;23.282;2024-03-25T04:35:24;3.90;99.90
2889;DHT22;1453;42.708;23.282;2024-03-25T04:37:50;3.80;99.90
2889;DHT22;1453;42.708;23.282;2024-03-25T04:40:16;3.80;99.90
2889;DHT22;1453;42.708;23.282;2024-03-25T04:42:45;3.80;99.90
2889;DHT22;1453;42.708;23.282;2024-03-25T04:45:11;3.80;99.90
2889;DHT22;1453;42.708;23.282;2024-03-25T04:47:40;3.90;99.90
2889;DHT22;1453;42.708;23.282;2024-03-25T04:50:06;3.60;99.90
2889;DHT22;1453;42.708;23.282;2024-03-25T04:52:33;3.70;99.90
2889;DHT22;1453;42.708;23.282;2024-03-25T04:54:59;3.80;99.90
2889;DHT22;1453;42.708;23.282;2024-03-25T04:57:25;4.00;99.90
2889;DHT22;1453;42.708;23.282;2024-03-25T04:59:51;3.90;99.90
2889;DHT22;1453;42.708;23.282;2024-03-25T05:02:17;3.90;99.90
2889;DHT22;1453;42.708;23.282;2024-03-25T05:04:43;3.90;99.90
2889;DHT22;1453;42.708;23.282;2024-03-25T05:07:09;3.80;99.90
2889;DHT22;1453;42.708;23.282;2024-03-25T05:09:36;3.90;99.90
2889;DHT22;1453;42.708;23.282;2024-03-25T05:12:02;3.90;99.90
2889;DHT22;1453;42.708;23.282;2024-03-25T05:14:28;4.00;99.90
2889;DHT22;1453;42.708;23.282;2024-03-25T05:16:53;4.00;99.90
2889;DHT22;1453;42.708;23.282;2024-03-25T05:19:19;4.00;99.90
2889;DHT22;1453;42.708;23.282;2024-03-25T05:21:45;4.10;99.90
2889;DHT22;1453;42.708;23.282;2024-03-25T05:24:11;4.10;99.90
2889;DHT22;1453;42.708;23.282;2024-03-25T05:26:37;4.00;99.90
2889;DHT22;1453;42.708;23.282;2024-03-25T05:29:03;4.10;99.90
2889;DHT22;1453;42.708;23.282;2024-03-25T05:31:29;4.20;99.90
2889;DHT22;1453;42.708;23.282;2024-03-25T05:33:56;4.10;99.90
2889;DHT22;1453;42.708;23.282;2024-03-25T05:36:22;4.20;99.90
2889;DHT22;1453;42.708;23.282;2024-03-25T05:38:47;4.30;99.90
2889;DHT22;1453;42.708;23.282;2024-03-25T05:41:13;4.30;99.90
2889;DHT22;1453;42.708;23.282;2024-03-25T05:43:39;4.20;99.90
2889;DHT22;1453;42.708;23.282;2024-03-25T05:46:05;4.20;99.90
2889;DHT22;1453;42.708;23.282;2024-03-25T05:48:31;4.20;99.90
2889;DHT22;1453;42.708;23.282;2024-03-25T05:51:06;4.40;99.90
2889;DHT22;1453;42.708;23.282;2024-03-25T05:53:36;4.50;99.90
2889;DHT22;1453;42.708;23.282;2024-03-25T05:56:03;4.80;99.90
2889;DHT22;1453;42.708;23.282;2024-03-25T05:58:29;4.70;99.90
2889;DHT22;1453;42.708;23.282;2024-03-25T06:00:55;4.70;99.90
2889;DHT22;1453;42.708;23.282;2024-03-25T06:03:21;4.80;99.90
2889;DHT22;1453;42.708;23.282;2024-03-25T06:05:48;4.90;99.90
2889;DHT22;1453;42.708;23.282;2024-03-25T06:08:14;4.90;99.90
2889;DHT22;1453;42.708;23.282;2024-03-25T06:10:52;4.80;99.90
2889;DHT22;1453;42.708;23.282;2024-03-25T06:13:21;4.80;99.90
2889;DHT22;1453;42.708;23.282;2024-03-25T06:15:47;5.00;99.90
2889;DHT22;1453;42.708;23.282;2024-03-25T06:18:13;4.70;99.90
2889;DHT22;1453;42.708;23.282;2024-03-25T06:20:39;4.80;99.90
2889;DHT22;1453;42.708;23.282;2024-03-25T06:23:05;4.90;99.90
2889;DHT22;1453;42.708;23.282;2024-03-25T06:25:31;5.00;99.90
2889;DHT22;1453;42.708;23.282;2024-03-25T06:27:59;5.10;99.90
2889;DHT22;1453;42.708;23.282;2024-03-25T06:30:24;5.20;99.90
2889;DHT22;1453;42.708;23.282;2024-03-25T06:33:09;5.40;99.90
2889;DHT22;1453;42.708;23.282;2024-03-25T06:35:54;6.20;99.90
2889;DHT22;1453;42.708;23.282;2024-03-25T06:38:19;6.70;99.90
2889;DHT22;1453;42.708;23.282;2024-03-25T06:40:46;6.80;99.90
2889;DHT22;1453;42.708;23.282;2024-03-25T06:43:12;7.10;99.90
2889;DHT22;1453;42.708;23.282;2024-03-25T06:45:38;6.70;99.90
2889;DHT22;1453;42.708;23.282;2024-03-25T06:48:04;6.40;99.90
2889;DHT22;1453;42.708;23.282;2024-03-25T06:50:30;6.40;99.90
2889;DHT22;1453;42.708;23.282;2024-03-25T06:52:56;6.60;99.90
2889;DHT22;1453;42.708;23.282;2024-03-25T06:55:23;7.10;99.90
2889;DHT22;1453;42.708;23.282;2024-03-25T06:57:53;7.30;99.90
2889;DHT22;1453;42.708;23.282;2024-03-25T07:00:19;7.50;99.90
2889;DHT22;1453;42.708;23.282;2024-03-25T07:02:48;7.30;99.90
2889;DHT22;1453;42.708;23.282;2024-03-25T07:05:14;7.80;99.90
2889;DHT22;1453;42.708;23.282;2024-03-25T07:07:40;8.30;99.90
2889;DHT22;1453;42.708;23.282;2024-03-25T07:10:06;8.20;99.90
2889;DHT22;1453;42.708;23.282;2024-03-25T07:12:32;7.90;99.90
2889;DHT22;1453;42.708;23.282;2024-03-25T07:14:59;8.20;99.90
2889;DHT22;1453;42.708;23.282;2024-03-25T07:17:24;8.10;99.90
2889;DHT22;1453;42.708;23.282;2024-03-25T07:19:51;7.50;99.90
2889;DHT22;1453;42.708;23.282;2024-03-25T07:22:17;7.30;99.90
2889;DHT22;1453;42.708;23.282;2024-03-25T07:24:43;7.30;99.90
2889;DHT22;1453;42.708;23.282;2024-03-25T07:27:10;7.50;99.90
2889;DHT22;1453;42.708;23.282;2024-03-25T07:29:37;7.50;99.90
2889;DHT22;1453;42.708;23.282;2024-03-25T07:32:03;7.80;99.90
2889;DHT22;1453;42.708;23.282;2024-03-25T07:34:29;8.00;99.90
2889;DHT22;1453;42.708;23.282;2024-03-25T07:36:55;8.40;99.90
2889;DHT22;1453;42.708;23.282;2024-03-25T07:39:21;8.90;99.90
2889;DHT22;1453;42.708;23.282;2024-03-25T07:41:49;8.70;99.90
2889;DHT22;1453;42.708;23.282;2024-03-25T07:44:15;8.60;99.90
2889;DHT22;1453;42.708;23.282;2024-03-25T07:46:41;9.30;99.90
2889;DHT22;1453;42.708;23.282;2024-03-25T07:49:07;10.10;99.90
2889;DHT22;1453;42.708;23.282;2024-03-25T07:51:34;10.00;96.90
2889;DHT22;1453;42.708;23.282;2024-03-25T07:54:01;10.50;95.90
2889;DHT22;1453;42.708;23.282;2024-03-25T07:56:29;10.80;93.10
2889;DHT22;1453;42.708;23.282;2024-03-25T07:58:55;10.10;93.50
2889;DHT22;1453;42.708;23.282;2024-03-25T08:01:21;10.70;94.80
2889;DHT22;1453;42.708;23.282;2024-03-25T08:03:47;11.20;92.10
2889;DHT22;1453;42.708;23.282;2024-03-25T08:06:13;11.40;90.00
2889;DHT22;1453;42.708;23.282;2024-03-25T08:08:39;11.20;90.50
2889;DHT22;1453;42.708;23.282;2024-03-25T08:11:05;10.60;90.10
2889;DHT22;1453;42.708;23.282;2024-03-25T08:13:31;10.30;90.70
2889;DHT22;1453;42.708;23.282;2024-03-25T08:15:56;10.30;91.40
2889;DHT22;1453;42.708;23.282;2024-03-25T08:18:22;10.40;90.50
2889;DHT22;1453;42.708;23.282;2024-03-25T08:20:48;10.40;90.50
2889;DHT22;1453;42.708;23.282;2024-03-25T08:23:14;10.20;91.00
2889;DHT22;1453;42.708;23.282;2024-03-25T08:25:40;10.20;89.70
2889;DHT22;1453;42.708;23.282;2024-03-25T08:28:06;10.10;88.10
2889;DHT22;1453;42.708;23.282;2024-03-25T08:30:32;10.40;88.40
2889;DHT22;1453;42.708;23.282;2024-03-25T08:32:57;10.30;90.20
2889;DHT22;1453;42.708;23.282;2024-03-25T08:35:23;10.50;89.50
2889;DHT22;1453;42.708;23.282;2024-03-25T08:37:49;11.50;87.20
2889;DHT22;1453;42.708;23.282;2024-03-25T08:40:15;11.80;82.00
2889;DHT22;1453;42.708;23.282;2024-03-25T08:42:41;11.60;83.00
2889;DHT22;1453;42.708;23.282;2024-03-25T08:45:07;10.90;82.50
2889;DHT22;1453;42.708;23.282;2024-03-25T08:47:33;9.90;86.00
2889;DHT22;1453;42.708;23.282;2024-03-25T08:49:59;9.30;90.10
2889;DHT22;1453;42.708;23.282;2024-03-25T08:52:25;9.20;92.90
2889;DHT22;1453;42.708;23.282;2024-03-25T08:54:51;9.90;92.60
2889;DHT22;1453;42.708;23.282;2024-03-25T08:57:16;10.60;91.40
2889;DHT22;1453;42.708;23.282;2024-03-25T08:59:42;10.30;85.80
2889;DHT22;1453;42.708;23.282;2024-03-25T09:02:08;9.70;90.20
2889;DHT22;1453;42.708;23.282;2024-03-25T09:04:34;9.50;90.60
2889;DHT22;1453;42.708;23.282;2024-03-25T09:07:00;9.20;93.10
2889;DHT22;1453;42.708;23.282;2024-03-25T09:09:26;9.30;91.40
2889;DHT22;1453;42.708;23.282;2024-03-25T09:12:10;9.20;91.20
2889;DHT22;1453;42.708;23.282;2024-03-25T09:14:37;8.80;93.20
2889;DHT22;1453;42.708;23.282;2024-03-25T09:17:04;9.00;92.70
2889;DHT22;1453;42.708;23.282;2024-03-25T09:19:30;8.50;93.90
2889;DHT22;1453;42.708;23.282;2024-03-25T09:21:56;8.20;98.00
2889;DHT22;1453;42.708;23.282;2024-03-25T09:24:22;8.10;99.90
2889;DHT22;1453;42.708;23.282;2024-03-25T09:26:50;8.50;99.90
2889;DHT22;1453;42.708;23.282;2024-03-25T09:29:16;8.10;99.90
2889;DHT22;1453;42.708;23.282;2024-03-25T09:31:42;7.90;99.90
2889;DHT22;1453;42.708;23.282;2024-03-25T09:34:08;8.10;99.90
2889;DHT22;1453;42.708;23.282;2024-03-25T09:36:34;8.30;99.90
2889;DHT22;1453;42.708;23.282;2024-03-25T09:39:00;8.10;99.90
2889;DHT22;1453;42.708;23.282;2024-03-25T09:41:28;8.30;99.90
2889;DHT22;1453;42.708;23.282;2024-03-25T09:43:54;8.20;99.90
2889;DHT22;1453;42.708;23.282;2024-03-25T09:46:23;8.40;99.90
2889;DHT22;1453;42.708;23.282;2024-03-25T09:48:52;8.40;99.90
2889;DHT22;1453;42.708;23.282;2024-03-25T09:51:19;8.10;99.90
2889;DHT22;1453;42.708;23.282;2024-03-25T09:53:46;7.90;99.90
2889;DHT22;1453;42.708;23.282;2024-03-25T09:56:15;7.90;99.90
2889;DHT22;1453;42.708;23.282;2024-03-25T09:58:42;7.80;99.90
2889;DHT22;1453;42.708;23.282;2024-03-25T10:01:09;7.90;99.90
2889;DHT22;1453;42.708;23.282;2024-03-25T10:03:35;8.10;99.90
2889;DHT22;1453;42.708;23.282;2024-03-25T10:06:01;8.50;99.90
2889;DHT22;1453;42.708;23.282;2024-03-25T10:08:28;8.40;97.10
2889;DHT22;1453;42.708;23.282;2024-03-25T10:10:56;8.20;97.80
2889;DHT22;1453;42.708;23.282;2024-03-25T10:13:23;8.40;97.60
2889;DHT22;1453;42.708;23.282;2024-03-25T10:15:49;8.50;96.90
2889;DHT22;1453;42.708;23.282;2024-03-25T10:18:16;8.60;96.40
2889;DHT22;1453;42.708;23.282;2024-03-25T10:20:52;8.30;96.10
2889;DHT22;1453;42.708;23.282;2024-03-25T10:23:25;8.40;97.30
2889;DHT22;1453;42.708;23.282;2024-03-25T10:25:52;8.80;96.60
2889;DHT22;1453;42.708;23.282;2024-03-25T10:28:19;9.00;94.60
2889;DHT22;1453;42.708;23.282;2024-03-25T10:30:45;9.00;93.10
2889;DHT22;1453;42.708;23.282;2024-03-25T10:33:11;8.80;91.00
2889;DHT22;1453;42.708;23.282;2024-03-25T10:35:38;8.90;90.80
2889;DHT22;1453;42.708;23.282;2024-03-25T10:38:09;8.90;89.00
2889;DHT22;1453;42.708;23.282;2024-03-25T10:40:39;9.10;88.90
2889;DHT22;1453;42.708;23.282;2024-03-25T10:43:09;9.30;82.80
2889;DHT22;1453;42.708;23.282;2024-03-25T10:45:47;9.40;81.80
2889;DHT22;1453;42.708;23.282;2024-03-25T10:50:54;10.00;82.20
2889;DHT22;1453;42.708;23.282;2024-03-25T10:53:22;10.50;79.90
2889;DHT22;1453;42.708;23.282;2024-03-25T10:55:54;10.50;77.00
2889;DHT22;1453;42.708;23.282;2024-03-25T10:58:22;9.60;77.00
2889;DHT22;1453;42.708;23.282;2024-03-25T11:00:50;9.70;78.40
2889;DHT22;1453;42.708;23.282;2024-03-25T11:03:20;9.70;79.80
2889;DHT22;1453;42.708;23.282;2024-03-25T11:05:47;9.80;79.80
2889;DHT22;1453;42.708;23.282;2024-03-25T11:08:14;9.70;78.60
2889;DHT22;1453;42.708;23.282;2024-03-25T11:10:41;9.70;80.20
2889;DHT22;1453;42.708;23.282;2024-03-25T11:13:14;9.90;80.40
2889;DHT22;1453;42.708;23.282;2024-03-25T11:15:45;10.80;77.70
2889;DHT22;1453;42.708;23.282;2024-03-25T11:18:16;11.30;76.70
2889;DHT22;1453;42.708;23.282;2024-03-25T11:20:43;11.80;75.20
2889;DHT22;1453;42.708;23.282;2024-03-25T11:23:10;12.60;75.10
2889;DHT22;1453;42.708;23.282;2024-03-25T11:25:38;12.30;75.00
2889;DHT22;1453;42.708;23.282;2024-03-25T11:28:06;11.90;76.10
2889;DHT22;1453;42.708;23.282;2024-03-25T11:30:32;11.00;77.90
2889;DHT22;1453;42.708;23.282;2024-03-25T11:33:01;10.80;79.20
2889;DHT22;1453;42.708;23.282;2024-03-25T11:35:28;11.10;80.20
2889;DHT22;1453;42.708;23.282;2024-03-25T11:37:54;11.70;79.30
2889;DHT22;1453;42.708;23.282;2024-03-25T11:40:20;12.40;77.30
2889;DHT22;1453;42.708;23.282;2024-03-25T11:42:46;12.80;74.30
2889;DHT22;1453;42.708;23.282;2024-03-25T11:45:18;11.80;75.40
2889;DHT22;1453;42.708;23.282;2024-03-25T11:47:47;11.40;76.00
2889;DHT22;1453;42.708;23.282;2024-03-25T11:50:15;11.80;78.80
2889;DHT22;1453;42.708;23.282;2024-03-25T11:52:43;11.80;77.00
2889;DHT22;1453;42.708;23.282;2024-03-25T11:55:09;11.90;74.20
2889;DHT22;1453;42.708;23.282;2024-03-25T11:57:37;12.10;72.30
2889;DHT22;1453;42.708;23.282;2024-03-25T12:00:05;12.30;70.50
2889;DHT22;1453;42.708;23.282;2024-03-25T12:02:32;12.40;71.20
2889;DHT22;1453;42.708;23.282;2024-03-25T12:04:58;12.90;68.40
2889;DHT22;1453;42.708;23.282;2024-03-25T12:07:24;12.50;67.90
2889;DHT22;1453;42.708;23.282;2024-03-25T12:09:50;11.40;69.20
2889;DHT22;1453;42.708;23.282;2024-03-25T12:12:34;10.30;72.10
2889;DHT22;1453;42.708;23.282;2024-03-25T12:15:01;10.70;73.50
2889;DHT22;1453;42.708;23.282;2024-03-25T12:17:29;10.20;74.30
2889;DHT22;1453;42.708;23.282;2024-03-25T12:20:06;10.70;74.20
2889;DHT22;1453;42.708;23.282;2024-03-25T12:22:40;10.40;73.20
2889;DHT22;1453;42.708;23.282;2024-03-25T12:25:08;10.70;74.30
2889;DHT22;1453;42.708;23.282;2024-03-25T12:27:38;11.10;73.70
2889;DHT22;1453;42.708;23.282;2024-03-25T12:30:07;12.10;72.40
2889;DHT22;1453;42.708;23.282;2024-03-25T12:32:42;12.30;69.40
2889;DHT22;1453;42.708;23.282;2024-03-25T12:35:10;12.40;68.30
2889;DHT22;1453;42.708;23.282;2024-03-25T12:37:41;12.30;68.80
2889;DHT22;1453;42.708;23.282;2024-03-25T12:40:14;13.30;68.10
2889;DHT22;1453;42.708;23.282;2024-03-25T12:42:54;13.60;66.40
2889;DHT22;1453;42.708;23.282;2024-03-25T12:45:21;13.70;63.90
2889;DHT22;1453;42.708;23.282;2024-03-25T12:47:48;13.30;63.60
2889;DHT22;1453;42.708;23.282;2024-03-25T12:50:17;13.90;62.70
2889;DHT22;1453;42.708;23.282;2024-03-25T12:52:44;12.60;62.10
2889;DHT22;1453;42.708;23.282;2024-03-25T12:55:10;12.10;63.80
2889;DHT22;1453;42.708;23.282;2024-03-25T12:57:36;11.50;68.10
2889;DHT22;1453;42.708;23.282;2024-03-25T13:00:03;11.10;68.10
2889;DHT22;1453;42.708;23.282;2024-03-25T13:02:33;10.60;67.00
2889;DHT22;1453;42.708;23.282;2024-03-25T13:04:59;10.20;68.50
2889;DHT22;1453;42.708;23.282;2024-03-25T13:07:25;9.80;71.00
2889;DHT22;1453;42.708;23.282;2024-03-25T13:09:51;9.60;73.10
2889;DHT22;1453;42.708;23.282;2024-03-25T13:12:17;9.50;73.70
2889;DHT22;1453;42.708;23.282;2024-03-25T13:14:43;9.50;74.20
2889;DHT22;1453;42.708;23.282;2024-03-25T13:17:09;9.60;75.70
2889;DHT22;1453;42.708;23.282;2024-03-25T13:19:35;10.60;74.50
2889;DHT22;1453;42.708;23.282;2024-03-25T13:22:01;11.20;70.10
2889;DHT22;1453;42.708;23.282;2024-03-25T13:24:26;10.70;71.40
2889;DHT22;1453;42.708;23.282;2024-03-25T13:26:52;11.70;69.80
2889;DHT22;1453;42.708;23.282;2024-03-25T13:29:18;11.00;68.40
2889;DHT22;1453;42.708;23.282;2024-03-25T13:31:45;11.20;68.70
2889;DHT22;1453;42.708;23.282;2024-03-25T13:34:11;10.80;67.20
2889;DHT22;1453;42.708;23.282;2024-03-25T13:36:36;10.30;67.60
2889;DHT22;1453;42.708;23.282;2024-03-25T13:39:02;9.90;67.40
2889;DHT22;1453;42.708;23.282;2024-03-25T13:41:28;9.90;67.50
2889;DHT22;1453;42.708;23.282;2024-03-25T13:43:54;9.90;66.80
2889;DHT22;1453;42.708;23.282;2024-03-25T13:46:20;9.80;65.70
2889;DHT22;1453;42.708;23.282;2024-03-25T13:48:47;9.70;66.80
2889;DHT22;1453;42.708;23.282;2024-03-25T13:51:13;9.90;66.60
2889;DHT22;1453;42.708;23.282;2024-03-25T13:53:39;9.70;66.70
2889;DHT22;1453;42.708;23.282;2024-03-25T13:56:06;9.40;68.80
2889;DHT22;1453;42.708;23.282;2024-03-25T13:58:32;8.40;76.00
2889;DHT22;1453;42.708;23.282;2024-03-25T14:00:57;8.00;86.80
2889;DHT22;1453;42.708;23.282;2024-03-25T14:03:24;7.80;94.40
2889;DHT22;1453;42.708;23.282;2024-03-25T14:05:50;8.10;97.90
2889;DHT22;1453;42.708;23.282;2024-03-25T14:08:16;7.90;99.90
2889;DHT22;1453;42.708;23.282;2024-03-25T14:10:43;7.80;99.90
2889;DHT22;1453;42.708;23.282;2024-03-25T14:13:09;7.70;99.90
2889;DHT22;1453;42.708;23.282;2024-03-25T14:15:35;7.70;99.90
2889;DHT22;1453;42.708;23.282;2024-03-25T14:18:01;7.60;99.50
2889;DHT22;1453;42.708;23.282;2024-03-25T14:20:27;7.90;97.70
2889;DHT22;1453;42.708;23.282;2024-03-25T14:22:53;7.90;97.90
2889;DHT22;1453;42.708;23.282;2024-03-25T14:25:19;8.10;96.90
2889;DHT22;1453;42.708;23.282;2024-03-25T14:27:45;8.70;94.80
2889;DHT22;1453;42.708;23.282;2024-03-25T14:30:11;9.60;91.40
2889;DHT22;1453;42.708;23.282;2024-03-25T14:32:40;10.40;84.00
2889;DHT22;1453;42.708;23.282;2024-03-25T14:35:06;11.00;77.60
2889;DHT22;1453;42.708;23.282;2024-03-25T14:37:33;11.80;73.80
2889;DHT22;1453;42.708;23.282;2024-03-25T14:39:58;12.00;68.70
2889;DHT22;1453;42.708;23.282;2024-03-25T14:42:25;11.70;68.30
2889;DHT22;1453;42.708;23.282;2024-03-25T14:44:51;11.80;66.80
2889;DHT22;1453;42.708;23.282;2024-03-25T14:47:17;12.20;64.50
2889;DHT22;1453;42.708;23.282;2024-03-25T14:49:42;12.30;63.30
2889;DHT22;1453;42.708;23.282;2024-03-25T14:52:08;12.00;64.20
2889;DHT22;1453;42.708;23.282;2024-03-25T14:54:35;11.50;64.50
2889;DHT22;1453;42.708;23.282;2024-03-25T14:57:01;10.90;66.80
2889;DHT22;1453;42.708;23.282;2024-03-25T14:59:27;10.80;67.20
2889;DHT22;1453;42.708;23.282;2024-03-25T15:01:54;11.00;67.20
2889;DHT22;1453;42.708;23.282;2024-03-25T15:04:20;11.30;67.40
2889;DHT22;1453;42.708;23.282;2024-03-25T15:06:46;11.10;67.10
2889;DHT22;1453;42.708;23.282;2024-03-25T15:09:12;10.20;68.60
2889;DHT22;1453;42.708;23.282;2024-03-25T15:11:39;9.80;72.20
2889;DHT22;1453;42.708;23.282;2024-03-25T15:14:05;9.40;76.90
2889;DHT22;1453;42.708;23.282;2024-03-25T15:16:31;8.80;83.90
2889;DHT22;1453;42.708;23.282;2024-03-25T15:18:57;8.70;88.50
2889;DHT22;1453;42.708;23.282;2024-03-25T15:21:23;9.30;89.70
2889;DHT22;1453;42.708;23.282;2024-03-25T15:23:48;9.70;86.90
2889;DHT22;1453;42.708;23.282;2024-03-25T15:26:14;10.20;83.20
2889;DHT22;1453;42.708;23.282;2024-03-25T15:28:40;10.00;80.20
2889;DHT22;1453;42.708;23.282;2024-03-25T15:31:06;10.00;78.50
2889;DHT22;1453;42.708;23.282;2024-03-25T15:33:32;8.90;76.30
2889;DHT22;1453;42.708;23.282;2024-03-25T15:35:59;9.30;78.00
2889;DHT22;1453;42.708;23.282;2024-03-25T15:38:25;9.50;75.70
2889;DHT22;1453;42.708;23.282;2024-03-25T15:40:51;10.50;71.90
2889;DHT22;1453;42.708;23.282;2024-03-25T15:43:18;9.90;71.40
2889;DHT22;1453;42.708;23.282;2024-03-25T15:46:13;9.20;74.20
2889;DHT22;1453;42.708;23.282;2024-03-25T15:48:39;9.30;75.80
2889;DHT22;1453;42.708;23.282;2024-03-25T15:51:05;9.20;75.50
2889;DHT22;1453;42.708;23.282;2024-03-25T15:53:31;9.20;76.20
2889;DHT22;1453;42.708;23.282;2024-03-25T15:55:57;9.40;76.50
2889;DHT22;1453;42.708;23.282;2024-03-25T15:58:23;9.20;77.30